createdAt,value
2022-08-18T00:01:50.295Z,52.00
2022-08-18T00:04:34.813Z,70.13
2022-08-18T00:07:10.878Z,55.22
2022-08-18T00:09:39.583Z,56.00
2022-08-18T00:12:20.799Z,48.35
2022-08-18T00:14:48.597Z,47.53
2022-08-18T00:17:16.347Z,49.45
2022-08-18T00:19:46.924Z,46.75
2022-08-18T00:22:19.990Z,46.85
2022-08-18T00:24:55.520Z,51.72
2022-08-18T00:27:28.948Z,51.38
2022-08-18T00:29:58.711Z,46.97
2022-08-18T00:32:34.647Z,65.00
2022-08-18T00:35:30.048Z,66.60
2022-08-18T00:37:59.878Z,56.72
2022-08-18T00:40:34.477Z,60.22
2022-08-18T00:43:06.047Z,53.58
2022-08-18T00:45:36.726Z,55.65
2022-08-18T00:48:04.843Z,52.17
2022-08-18T00:51:00.662Z,46.17
2022-08-18T00:53:45.949Z,54.65
2022-08-18T00:56:26.227Z,51.55
2022-08-18T00:58:58.465Z,53.65
2022-08-18T01:01:27.534Z,58.90
2022-08-18T01:04:00.492Z,54.35
2022-08-18T01:06:32.520Z,58.45
2022-08-18T01:09:00.162Z,61.03
2022-08-18T01:11:29.563Z,63.65
2022-08-18T01:13:58.342Z,56.58
2022-08-18T01:16:57.682Z,61.45
2022-08-18T01:19:44.055Z,54.85
2022-08-18T01:22:22.963Z,48.60
2022-08-18T01:25:10.226Z,49.78
2022-08-18T01:27:37.951Z,56.90
2022-08-18T01:30:10.464Z,57.92
2022-08-18T01:32:38.731Z,56.25
2022-08-18T01:35:11.644Z,53.15
2022-08-18T01:37:41.415Z,50.80
2022-08-18T01:41:17.242Z,61.83
2022-08-18T01:42:57.767Z,52.00
2022-08-18T01:45:25.429Z,51.70
2022-08-18T01:47:53.144Z,60.78
2022-08-18T01:50:21.158Z,62.40
2022-08-18T01:52:50.212Z,58.85
2022-08-18T01:55:18.327Z,53.33
2022-08-18T01:57:46.920Z,59.15
2022-08-18T02:00:16.118Z,60.25
2022-08-18T02:02:44.040Z,50.70
2022-08-18T02:05:24.674Z,59.10
2022-08-18T02:07:55.913Z,53.25
2022-08-18T02:10:23.777Z,58.85
2022-08-18T02:12:51.983Z,56.72
2022-08-18T02:15:19.720Z,47.35
2022-08-18T02:17:47.672Z,49.05
2022-08-18T02:20:16.913Z,48.03
2022-08-18T02:22:46.925Z,49.05
2022-08-18T02:25:14.736Z,45.05
2022-08-18T02:27:43.081Z,46.05
2022-08-18T02:30:12.838Z,46.35
2022-08-18T02:32:40.584Z,44.63
2022-08-18T02:35:11.534Z,51.08
2022-08-18T02:37:42.972Z,54.25
2022-08-18T02:40:15.154Z,44.25
2022-08-18T02:42:45.065Z,50.05
2022-08-18T02:45:13.666Z,50.45
2022-08-18T02:47:42.979Z,49.05
2022-08-18T02:50:13.371Z,45.90
2022-08-18T02:52:41.533Z,49.95
2022-08-18T02:55:10.007Z,45.63
2022-08-18T02:57:42.461Z,48.78
2022-08-18T03:00:13.713Z,45.90
2022-08-18T03:05:14.827Z,56.00
2022-08-18T03:07:43.278Z,51.88
2022-08-18T03:10:31.829Z,55.97
2022-08-18T03:12:59.231Z,54.58
2022-08-18T03:15:26.920Z,48.35
2022-08-18T03:17:56.370Z,49.05
2022-08-18T03:20:30.396Z,45.70
2022-08-18T03:22:59.766Z,46.50
2022-08-18T03:25:33.671Z,47.45
2022-08-18T03:28:02.651Z,50.38
2022-08-18T03:30:30.304Z,47.92
2022-08-18T03:32:58.479Z,45.38
2022-08-18T03:35:26.131Z,45.40
2022-08-18T03:37:56.028Z,40.63
2022-08-18T03:40:23.800Z,39.40
2022-08-18T03:42:51.391Z,39.78
2022-08-18T03:45:19.753Z,42.13
2022-08-18T03:47:47.460Z,37.85
2022-08-18T03:50:15.069Z,39.22
2022-08-18T03:52:42.630Z,38.55
2022-08-18T03:55:10.266Z,34.80
2022-08-18T03:57:39.319Z,33.35
2022-08-18T04:00:09.829Z,32.83
2022-08-18T04:02:37.410Z,31.70
2022-08-18T04:05:08.441Z,35.05
2022-08-18T04:07:37.952Z,36.42
2022-08-18T04:10:06.054Z,38.45
2022-08-18T04:12:43.452Z,36.70
2022-08-18T04:15:11.944Z,33.90
2022-08-18T04:18:03.435Z,38.40
2022-08-18T04:20:27.333Z,32.28
2022-08-18T04:22:55.848Z,26.85
2022-08-18T04:25:23.594Z,30.42
2022-08-18T04:27:51.325Z,33.60
2022-08-18T04:30:19.096Z,31.48
2022-08-18T04:32:46.648Z,33.20
2022-08-18T04:35:14.781Z,38.08
2022-08-18T04:37:44.055Z,28.40
2022-08-18T04:40:13.559Z,36.80
2022-08-18T04:42:43.517Z,30.65
2022-08-18T04:45:11.229Z,34.55
2022-08-18T04:47:41.769Z,34.35
2022-08-18T04:50:10.502Z,30.35
2022-08-18T04:52:56.920Z,36.05
2022-08-18T04:55:24.601Z,30.13
2022-08-18T04:57:52.662Z,34.22
2022-08-18T05:00:20.617Z,33.03
2022-08-18T05:02:48.943Z,28.35
2022-08-18T05:05:16.739Z,32.28
2022-08-18T05:07:46.035Z,26.10
2022-08-18T05:10:17.934Z,25.73
2022-08-18T05:12:47.725Z,29.13
2022-08-18T05:15:15.265Z,26.30
2022-08-18T05:17:50.503Z,30.23
2022-08-18T05:20:19.336Z,23.92
2022-08-18T05:22:47.505Z,27.45
2022-08-18T05:25:16.316Z,25.75
2022-08-18T05:27:45.244Z,25.38
2022-08-18T05:30:15.476Z,24.20
2022-08-18T05:32:48.147Z,41.75
2022-08-18T05:35:25.886Z,24.65
2022-08-18T05:37:57.367Z,25.55
2022-08-18T05:40:25.208Z,23.67
2022-08-18T05:42:54.041Z,27.08
2022-08-18T05:45:21.631Z,26.88
2022-08-18T05:47:49.463Z,27.67
2022-08-18T05:50:20.071Z,22.77
2022-08-18T05:53:13.226Z,25.90
2022-08-18T05:56:05.521Z,24.73
2022-08-18T05:58:42.271Z,26.60
2022-08-18T06:01:19.138Z,26.70
2022-08-18T06:03:50.609Z,26.17
2022-08-18T06:06:29.915Z,27.90
2022-08-18T06:09:18.171Z,23.05
2022-08-18T06:11:45.928Z,24.08
2022-08-18T06:14:14.331Z,24.90
2022-08-18T06:16:42.375Z,28.05
2022-08-18T06:19:46.768Z,22.75
2022-08-18T06:22:29.836Z,26.80
2022-08-18T06:25:26.683Z,28.15
2022-08-18T06:28:14.826Z,29.90
2022-08-18T06:30:42.866Z,39.20
2022-08-18T06:33:35.212Z,48.97
2022-08-18T06:36:08.957Z,51.22
2022-08-18T06:38:46.307Z,67.20
2022-08-18T06:41:41.964Z,63.08
2022-08-18T06:44:13.135Z,49.42
2022-08-18T06:46:53.864Z,54.80
2022-08-18T06:51:52.399Z,55.35
2022-08-18T06:54:19.831Z,52.58
2022-08-18T06:56:49.676Z,47.30
2022-08-18T06:59:19.084Z,48.17
2022-08-18T07:01:47.797Z,46.42
2022-08-18T07:04:38.478Z,44.55
2022-08-18T07:07:21.033Z,46.28
2022-08-18T07:09:49.539Z,47.55
2022-08-18T07:12:30.499Z,43.42
2022-08-18T07:15:01.982Z,45.58
2022-08-18T07:17:42.290Z,36.22
2022-08-18T07:20:18.803Z,39.10
2022-08-18T07:23:01.212Z,43.00
2022-08-18T07:25:32.199Z,40.40
2022-08-18T07:30:37.537Z,25.80
2022-08-18T07:33:08.041Z,17.85
2022-08-18T07:35:39.369Z,21.42
2022-08-18T07:38:40.885Z,18.40
2022-08-18T07:41:16.183Z,26.83
2022-08-18T07:43:51.984Z,18.52
2022-08-18T07:46:45.850Z,22.40
2022-08-18T07:49:24.937Z,20.35
2022-08-18T07:52:03.939Z,20.25
2022-08-18T07:54:50.481Z,17.27
2022-08-18T07:57:24.772Z,14.98
2022-08-18T08:00:20.689Z,16.65
2022-08-18T08:03:01.568Z,12.85
2022-08-18T08:05:48.684Z,16.48
2022-08-18T08:08:25.477Z,19.48
2022-08-18T08:10:56.318Z,18.17
2022-08-18T08:13:53.405Z,20.25
2022-08-18T08:16:48.550Z,13.95
2022-08-18T08:20:01.273Z,16.67
2022-08-18T08:22:33.468Z,22.25
2022-08-18T08:25:28.337Z,19.92
2022-08-18T08:28:07.508Z,18.90
2022-08-18T08:30:45.882Z,23.20
2022-08-18T08:33:44.413Z,22.67
2022-08-18T08:36:17.570Z,22.23
2022-08-18T08:38:49.736Z,18.35
2022-08-18T08:41:26.756Z,17.65
2022-08-18T08:44:09.539Z,23.13
2022-08-18T08:47:23.420Z,26.58
2022-08-18T08:50:00.603Z,21.50
2022-08-18T08:52:44.738Z,20.08
2022-08-18T08:55:19.417Z,22.52
2022-08-18T08:57:54.284Z,24.80
2022-08-18T09:00:21.997Z,20.13
2022-08-18T09:03:29.888Z,23.38
2022-08-18T09:06:17.204Z,23.63
2022-08-18T09:09:08.744Z,23.63
2022-08-18T09:11:50.292Z,19.67
2022-08-18T09:14:27.214Z,21.75
2022-08-18T09:17:16.180Z,22.25
2022-08-18T09:20:19.136Z,15.45
2022-08-18T09:22:55.046Z,21.27
2022-08-18T09:25:37.950Z,18.27
2022-08-18T09:28:15.079Z,21.70
2022-08-18T09:31:08.833Z,16.92
2022-08-18T09:33:40.805Z,17.65
2022-08-18T09:36:51.762Z,11.07
2022-08-18T09:45:34.043Z,15.57
2022-08-18T09:48:11.554Z,17.02
2022-08-18T09:50:37.043Z,17.60
2022-08-18T09:50:56.020Z,14.32
2022-08-18T09:53:54.412Z,15.23
2022-08-18T09:56:53.585Z,13.85
2022-08-18T09:59:35.209Z,14.27
2022-08-18T10:02:22.614Z,14.48
2022-08-18T10:05:21.276Z,14.32
2022-08-18T10:08:21.542Z,14.43
2022-08-18T10:11:16.752Z,10.90
2022-08-18T10:14:33.645Z,14.70
2022-08-18T10:17:23.965Z,13.18
2022-08-18T10:20:26.237Z,13.73
2022-08-18T10:23:01.818Z,13.32
2022-08-18T10:25:35.328Z,10.90
2022-08-18T10:28:05.886Z,14.73
2022-08-18T10:30:52.684Z,11.95
2022-08-18T10:33:57.545Z,11.38
2022-08-18T10:36:38.589Z,10.25
2022-08-18T10:39:11.021Z,12.50
2022-08-18T10:41:57.509Z,11.18
2022-08-18T10:44:29.581Z,11.25
2022-08-18T10:46:59.600Z,11.57
2022-08-18T10:49:29.193Z,12.93
2022-08-18T10:51:59.230Z,9.65
2022-08-18T10:54:50.791Z,10.20
2022-08-18T10:57:45.843Z,8.95
2022-08-18T11:00:18.751Z,11.20
2022-08-18T11:03:42.288Z,10.73
2022-08-18T11:06:18.041Z,10.75
2022-08-18T11:08:54.866Z,9.73
2022-08-18T11:11:53.055Z,10.20
2022-08-18T11:14:49.970Z,11.40
2022-08-18T11:17:54.966Z,8.98
2022-08-18T11:20:24.461Z,9.52
2022-08-18T11:23:00.467Z,11.43
2022-08-18T11:25:34.117Z,12.00
2022-08-18T11:28:02.433Z,10.93
2022-08-18T11:30:37.878Z,9.80
2022-08-18T11:33:08.690Z,13.48
2022-08-18T11:35:58.231Z,12.80
2022-08-18T11:38:29.621Z,14.90
2022-08-18T11:41:17.788Z,10.60
2022-08-18T11:43:48.297Z,13.32
2022-08-18T11:46:29.368Z,14.52
2022-08-18T11:49:00.533Z,19.05
2022-08-18T11:51:30.649Z,9.95
2022-08-18T11:54:05.222Z,7.60
2022-08-18T11:56:38.456Z,9.38
2022-08-18T11:59:08.484Z,10.32
2022-08-18T12:01:51.213Z,11.50
2022-08-18T12:04:21.279Z,12.27
2022-08-18T12:07:00.815Z,9.65
2022-08-18T12:12:32.564Z,8.85
2022-08-18T12:15:25.064Z,10.60
2022-08-18T12:17:57.323Z,12.52
2022-08-18T12:20:25.926Z,15.00
2022-08-18T12:22:54.867Z,12.18
2022-08-18T12:25:24.556Z,12.40
2022-08-18T12:27:54.871Z,11.75
2022-08-18T12:30:23.346Z,11.85
2022-08-18T12:33:01.002Z,11.68
2022-08-18T12:35:42.312Z,12.48
2022-08-18T12:40:59.118Z,13.20
2022-08-18T12:43:27.880Z,15.55
2022-08-18T12:46:00.621Z,14.65
2022-08-18T12:48:29.361Z,15.88
2022-08-18T12:50:58.405Z,17.65
2022-08-18T12:53:38.357Z,19.35
2022-08-18T12:56:27.363Z,16.88
2022-08-18T12:58:55.986Z,16.35
2022-08-18T13:01:25.439Z,18.27
2022-08-18T13:04:11.673Z,22.93
2022-08-18T13:07:00.527Z,20.00
2022-08-18T13:09:34.779Z,14.65
2022-08-18T13:12:17.501Z,17.42
2022-08-18T13:14:46.679Z,13.52
2022-08-18T13:17:28.996Z,14.90
2022-08-18T13:20:11.587Z,15.43
2022-08-18T13:22:42.009Z,16.90
2022-08-18T13:25:12.183Z,14.23
2022-08-18T13:27:45.699Z,15.73
2022-08-18T13:30:29.157Z,20.20
2022-08-18T13:33:02.518Z,14.85
2022-08-18T13:35:44.213Z,11.65
2022-08-18T13:38:20.673Z,12.90
2022-08-18T13:40:50.703Z,11.60
2022-08-18T13:43:23.342Z,10.32
2022-08-18T13:45:52.961Z,14.75
2022-08-18T13:48:25.826Z,13.20
2022-08-18T13:50:55.743Z,13.05
2022-08-18T13:53:24.832Z,11.82
2022-08-18T13:56:02.161Z,30.50
2022-08-18T13:58:32.417Z,15.55
2022-08-18T14:01:41.990Z,13.95
2022-08-18T14:03:52.817Z,14.13
2022-08-18T14:06:23.703Z,19.17
2022-08-18T14:11:32.886Z,13.50
2022-08-18T14:14:02.317Z,14.45
2022-08-18T14:16:32.350Z,14.43
2022-08-18T14:19:22.587Z,13.43
2022-08-18T14:22:12.562Z,16.75
2022-08-18T14:25:00.423Z,17.33
2022-08-18T14:27:35.627Z,12.63
2022-08-18T14:30:09.171Z,11.57
2022-08-18T14:32:59.619Z,13.18
2022-08-18T14:36:04.495Z,16.65
2022-08-18T14:38:16.228Z,14.82
2022-08-18T14:40:44.460Z,14.60
2022-08-18T14:43:14.196Z,13.02
2022-08-18T14:45:48.711Z,14.15
2022-08-18T14:48:18.713Z,12.05
2022-08-18T14:50:49.364Z,15.30
2022-08-18T14:53:20.473Z,18.38
2022-08-18T14:55:52.566Z,14.25
2022-08-18T14:58:26.880Z,13.75
2022-08-18T15:01:00.034Z,16.77
2022-08-18T15:03:31.562Z,10.88
2022-08-18T15:06:04.645Z,12.45
2022-08-18T15:08:36.007Z,13.38
2022-08-18T15:11:11.813Z,12.63
2022-08-18T15:13:45.236Z,11.73
2022-08-18T15:16:20.589Z,13.90
2022-08-18T15:18:56.129Z,12.70
2022-08-18T15:21:42.967Z,13.05
2022-08-18T15:24:29.306Z,15.00
2022-08-18T15:27:05.600Z,13.40
2022-08-18T15:29:34.915Z,14.18
2022-08-18T15:32:06.178Z,14.80
2022-08-18T15:34:47.194Z,12.18
2022-08-18T15:37:22.308Z,13.15
2022-08-18T15:40:21.731Z,49.70
2022-08-18T15:43:01.758Z,17.50
2022-08-18T15:45:35.619Z,11.82
2022-08-18T15:48:10.844Z,12.88
2022-08-18T15:50:41.791Z,11.40
2022-08-18T15:53:09.568Z,10.70
2022-08-18T15:55:39.283Z,10.80
2022-08-18T15:58:11.179Z,13.77
2022-08-18T16:00:46.073Z,16.13
2022-08-18T16:03:16.917Z,13.18
2022-08-18T16:05:53.083Z,11.88
2022-08-18T16:08:23.696Z,15.70
2022-08-18T16:10:54.183Z,16.23
2022-08-18T16:13:22.707Z,20.75
2022-08-18T16:15:50.724Z,16.38
2022-08-18T16:18:19.324Z,18.67
2022-08-18T16:20:47.249Z,19.38
2022-08-18T16:23:15.720Z,22.02
2022-08-18T16:25:43.729Z,18.52
2022-08-18T16:28:13.489Z,26.17
2022-08-18T16:30:41.667Z,21.70
2022-08-18T16:33:09.693Z,19.88
2022-08-18T16:35:37.651Z,26.33
2022-08-18T16:38:09.080Z,20.65
2022-08-18T16:40:36.989Z,23.23
2022-08-18T16:43:06.872Z,22.58
2022-08-18T16:45:36.995Z,23.73
2022-08-18T16:48:06.617Z,20.55
2022-08-18T16:50:35.715Z,19.58
2022-08-18T16:53:04.875Z,27.85
2022-08-18T16:55:32.428Z,21.23
2022-08-18T16:58:18.781Z,21.70
2022-08-18T17:01:05.076Z,37.30
2022-08-18T17:03:51.888Z,21.58
2022-08-18T17:06:19.672Z,29.23
2022-08-18T17:08:47.307Z,30.73
2022-08-18T17:11:17.369Z,24.02
2022-08-18T17:13:45.813Z,22.95
2022-08-18T17:16:13.697Z,28.25
2022-08-18T17:18:41.397Z,22.75
2022-08-18T17:21:10.736Z,20.15
2022-08-18T17:23:39.213Z,20.77
2022-08-18T17:26:08.348Z,19.15
2022-08-18T17:28:50.238Z,19.48
2022-08-18T17:31:20.793Z,13.80
2022-08-18T17:33:49.124Z,16.07
2022-08-18T17:36:23.528Z,17.42
2022-08-18T17:38:54.501Z,18.35
2022-08-18T17:41:23.774Z,13.15
2022-08-18T17:43:52.455Z,14.88
2022-08-18T17:46:29.338Z,21.40
2022-08-18T17:49:06.432Z,34.53
2022-08-18T17:51:46.940Z,21.52
2022-08-18T17:54:23.509Z,14.75
2022-08-18T17:56:55.469Z,11.73
2022-08-18T17:59:45.479Z,13.25
2022-08-18T18:02:29.163Z,15.35
2022-08-18T18:05:02.733Z,11.93
2022-08-18T18:07:56.825Z,12.48
2022-08-18T18:10:37.736Z,18.80
2022-08-18T18:13:12.329Z,13.27
2022-08-18T18:15:46.755Z,22.42
2022-08-18T18:18:21.843Z,16.50
2022-08-18T18:21:14.699Z,18.45
2022-08-18T18:23:46.052Z,15.50
2022-08-18T18:26:48.735Z,15.45
2022-08-18T18:29:19.491Z,16.60
2022-08-18T18:32:27.652Z,19.58
2022-08-18T18:35:27.444Z,16.48
2022-08-18T18:38:00.735Z,14.88
2022-08-18T18:40:39.452Z,16.73
2022-08-18T18:43:29.007Z,15.93
2022-08-18T18:46:18.660Z,14.98
2022-08-18T18:48:52.208Z,13.20
2022-08-18T18:51:33.948Z,19.58
2022-08-18T18:54:33.106Z,18.05
2022-08-18T18:57:00.739Z,16.55
2022-08-18T18:59:49.198Z,16.80
2022-08-18T19:02:46.247Z,16.95
2022-08-18T19:05:27.176Z,16.05
2022-08-18T19:08:15.940Z,19.35
2022-08-18T19:11:11.754Z,17.27
2022-08-18T19:13:42.254Z,19.30
2022-08-18T19:16:23.698Z,18.60
2022-08-18T19:19:38.108Z,20.85
2022-08-18T19:22:03.122Z,21.45
2022-08-18T19:24:41.363Z,20.27
2022-08-18T19:27:23.209Z,20.40
2022-08-18T19:29:52.480Z,18.17
2022-08-18T19:32:27.533Z,19.38
2022-08-18T19:34:55.954Z,23.30
2022-08-18T19:37:33.015Z,19.95
2022-08-18T19:40:17.516Z,19.67
2022-08-18T19:43:06.722Z,18.02
2022-08-18T19:45:58.033Z,15.57
2022-08-18T19:48:34.970Z,19.08
2022-08-18T19:51:10.347Z,17.67
2022-08-18T19:53:53.767Z,16.27
2022-08-18T19:56:32.896Z,18.70
2022-08-18T19:59:26.809Z,19.05
2022-08-18T20:02:21.372Z,22.33
2022-08-18T20:05:04.026Z,19.00
2022-08-18T20:07:55.261Z,18.65
2022-08-18T20:10:31.196Z,19.80
2022-08-18T20:13:09.250Z,19.98
2022-08-18T20:15:37.077Z,21.40
2022-08-18T20:18:18.231Z,19.92
2022-08-18T20:20:45.935Z,18.33
2022-08-18T20:23:34.162Z,17.50
2022-08-18T20:26:01.855Z,18.88
2022-08-18T20:28:39.085Z,22.35
2022-08-18T20:31:13.096Z,19.25
2022-08-18T20:34:04.254Z,21.05
2022-08-18T20:36:36.734Z,21.25
2022-08-18T20:39:32.348Z,22.00
2022-08-18T20:42:04.434Z,22.75
2022-08-18T20:44:44.247Z,20.20
2022-08-18T20:47:46.130Z,20.45
2022-08-18T20:50:38.332Z,23.48
2022-08-18T20:53:50.387Z,30.63
2022-08-18T20:56:31.954Z,23.10
2022-08-18T20:59:08.664Z,21.15
2022-08-18T21:01:37.339Z,23.58
2022-08-18T21:04:06.910Z,27.50
2022-08-18T21:06:42.169Z,23.13
2022-08-18T21:09:10.608Z,21.70
2022-08-18T21:11:44.236Z,23.63
2022-08-18T21:14:13.134Z,24.40
2022-08-18T21:16:45.205Z,22.75
2022-08-18T21:19:27.683Z,19.67
2022-08-18T21:22:04.150Z,21.60
2022-08-18T21:24:39.009Z,22.67
2022-08-18T21:27:07.689Z,26.08
2022-08-18T21:29:42.247Z,19.73
2022-08-18T21:32:20.133Z,23.65
2022-08-18T21:34:48.248Z,23.40
2022-08-18T21:37:17.339Z,22.13
2022-08-18T21:39:52.979Z,25.63
2022-08-18T21:42:41.361Z,23.08
2022-08-18T21:45:19.423Z,19.45
2022-08-18T21:47:56.634Z,21.40
2022-08-18T21:50:29.252Z,23.55
2022-08-18T21:53:01.319Z,23.98
2022-08-18T21:55:40.737Z,20.17
2022-08-18T21:58:18.200Z,22.02
2022-08-18T22:01:04.949Z,23.95
2022-08-18T22:03:32.780Z,23.20
2022-08-18T22:06:13.797Z,24.92
2022-08-18T22:08:49.744Z,21.75
2022-08-18T22:11:59.580Z,24.77
2022-08-18T22:14:53.529Z,22.80
2022-08-18T22:17:29.572Z,21.10
2022-08-18T22:20:35.524Z,20.38
2022-08-18T22:23:24.893Z,24.80
2022-08-18T22:25:52.691Z,24.35
2022-08-18T22:28:24.318Z,25.02
2022-08-18T22:30:55.066Z,22.27
2022-08-18T22:33:23.576Z,23.48
2022-08-18T22:35:57.459Z,25.63
2022-08-18T22:38:25.472Z,25.60
2022-08-18T22:40:53.077Z,28.85
2022-08-18T22:43:20.665Z,23.63
2022-08-18T22:45:48.261Z,28.90
2022-08-18T22:48:16.638Z,25.73
2022-08-18T22:50:46.195Z,29.38
2022-08-18T22:53:14.369Z,27.65
2022-08-18T22:55:41.936Z,26.73
2022-08-18T22:58:09.645Z,30.10
2022-08-18T23:00:39.724Z,29.65
2022-08-18T23:03:09.839Z,33.42
2022-08-18T23:05:37.539Z,32.90
2022-08-18T23:08:05.833Z,33.60
2022-08-18T23:10:33.542Z,29.38
2022-08-18T23:13:04.455Z,29.80
2022-08-18T23:18:19.955Z,29.23
2022-08-18T23:21:00.247Z,26.60
2022-08-18T23:23:28.832Z,29.17
2022-08-18T23:25:56.558Z,34.78
2022-08-18T23:28:27.260Z,34.78
2022-08-18T23:30:58.104Z,35.28
2022-08-18T23:33:26.146Z,31.67
2022-08-18T23:35:53.849Z,33.92
2022-08-18T23:38:21.598Z,28.30
2022-08-18T23:40:59.093Z,30.48
2022-08-18T23:43:26.680Z,25.92
2022-08-18T23:45:54.249Z,32.30
2022-08-18T23:48:22.423Z,31.67
2022-08-18T23:50:50.128Z,34.15
2022-08-18T23:53:18.986Z,35.55
2022-08-18T23:55:46.656Z,39.35
2022-08-18T23:58:14.285Z,36.75
